createdAt,value
2022-12-15T00:02:57.585Z,-1.10
2022-12-15T00:06:20.058Z,-0.94
2022-12-15T00:09:41.649Z,-0.94
2022-12-15T00:13:03.356Z,-0.93
2022-12-15T00:16:26.521Z,-0.97
2022-12-15T00:19:48.555Z,-0.97
2022-12-15T00:23:10.133Z,-1.05
2022-12-15T00:26:32.413Z,-1.02
2022-12-15T00:29:54.367Z,-0.96
2022-12-15T00:33:16.216Z,-0.95
2022-12-15T00:36:37.710Z,-0.92
2022-12-15T00:39:40.881Z,-0.95
2022-12-15T00:42:43.796Z,-0.93
2022-12-15T00:46:05.637Z,-0.97
2022-12-15T00:49:28.880Z,-0.98
2022-12-15T00:52:50.671Z,-0.92
2022-12-15T00:56:12.105Z,-0.84
2022-12-15T00:59:35.130Z,-0.88
2022-12-15T01:02:56.864Z,-0.84
2022-12-15T01:06:18.615Z,-0.85
2022-12-15T01:09:39.826Z,-0.79
2022-12-15T01:13:02.218Z,-0.80
2022-12-15T01:16:30.285Z,-0.75
2022-12-15T01:19:52.120Z,-0.76
2022-12-15T01:22:56.239Z,-0.76
2022-12-15T01:25:59.484Z,-0.75
2022-12-15T01:29:02.414Z,-0.77
2022-12-15T01:32:06.018Z,-0.72
2022-12-15T01:35:09.260Z,-0.72
2022-12-15T01:38:12.567Z,-0.70
2022-12-15T01:41:15.618Z,-0.72
2022-12-15T01:44:22.004Z,-0.70
2022-12-15T01:47:25.792Z,-0.68
2022-12-15T01:50:32.159Z,-0.59
2022-12-15T01:53:40.173Z,-0.66
2022-12-15T01:56:46.964Z,-0.70
2022-12-15T01:59:53.115Z,-0.69
2022-12-15T02:02:57.162Z,-0.70
2022-12-15T02:06:01.358Z,-0.85
2022-12-15T02:09:04.765Z,-0.85
2022-12-15T02:12:29.509Z,-0.77
2022-12-15T02:15:42.017Z,-0.72
2022-12-15T02:19:03.794Z,-0.72
2022-12-15T02:22:38.734Z,-0.67
2022-12-15T02:25:45.113Z,-0.66
2022-12-15T02:29:05.769Z,-0.65
2022-12-15T02:32:15.332Z,-0.61
2022-12-15T02:35:44.531Z,-0.61
2022-12-15T02:38:47.904Z,-0.59
2022-12-15T02:41:53.029Z,-0.54
2022-12-15T02:45:09.680Z,-0.55
2022-12-15T02:48:23.898Z,-0.53
2022-12-15T02:51:48.144Z,-0.56
2022-12-15T02:55:14.176Z,-0.56
2022-12-15T02:58:20.245Z,-0.53
2022-12-15T03:01:37.132Z,-0.44
2022-12-15T03:04:44.261Z,-0.47
2022-12-15T03:07:50.280Z,-0.49
2022-12-15T03:10:55.906Z,-0.46
2022-12-15T03:13:59.032Z,-0.44
2022-12-15T03:17:04.300Z,-0.44
2022-12-15T03:20:09.189Z,-0.43
2022-12-15T03:23:13.692Z,-0.39
2022-12-15T03:26:16.598Z,-0.38
2022-12-15T03:29:20.054Z,-0.35
2022-12-15T03:32:22.976Z,-0.35
2022-12-15T03:35:26.198Z,-0.33
2022-12-15T03:38:29.146Z,-0.34
2022-12-15T03:41:32.364Z,-0.33
2022-12-15T03:44:35.430Z,-0.25
2022-12-15T03:47:42.024Z,-0.26
2022-12-15T03:50:44.935Z,-0.27
2022-12-15T03:53:49.427Z,-0.24
2022-12-15T03:56:52.347Z,-0.26
2022-12-15T03:59:55.654Z,-0.27
2022-12-15T04:02:58.643Z,-0.21
2022-12-15T04:06:02.302Z,-0.18
2022-12-15T04:09:05.417Z,-0.30
2022-12-15T04:12:11.239Z,-0.42
2022-12-15T04:15:14.355Z,-0.51
2022-12-15T04:18:17.630Z,-0.53
2022-12-15T04:21:20.495Z,-0.57
2022-12-15T04:24:42.538Z,-0.57
2022-12-15T04:28:04.605Z,-0.51
2022-12-15T04:31:32.251Z,-0.48
2022-12-15T04:34:54.253Z,-0.46
2022-12-15T04:38:16.018Z,-0.42
2022-12-15T04:41:38.468Z,-0.39
2022-12-15T04:45:01.074Z,-0.35
2022-12-15T04:48:23.335Z,-0.32
2022-12-15T04:51:45.144Z,-0.32
2022-12-15T04:55:06.725Z,-0.33
2022-12-15T04:58:30.066Z,-0.32
2022-12-15T05:01:52.633Z,-0.34
2022-12-15T05:05:14.445Z,-0.36
2022-12-15T05:08:36.459Z,-0.39
2022-12-15T05:12:08.067Z,-0.37
2022-12-15T05:15:29.438Z,-0.41
2022-12-15T05:18:51.431Z,-0.34
2022-12-15T05:22:13.090Z,-0.33
2022-12-15T05:25:35.645Z,-0.27
2022-12-15T05:28:58.022Z,-0.34
2022-12-15T05:32:01.244Z,-0.41
2022-12-15T05:35:05.686Z,-0.40
2022-12-15T05:38:08.972Z,-0.43
2022-12-15T05:41:11.835Z,-0.36
2022-12-15T05:44:15.304Z,-0.33
2022-12-15T05:47:18.196Z,-0.39
2022-12-15T05:50:22.185Z,-0.36
2022-12-15T05:53:25.352Z,-0.28
2022-12-15T05:56:29.376Z,-0.25
2022-12-15T05:59:32.254Z,-0.22
2022-12-15T06:02:35.526Z,-0.19
2022-12-15T06:05:39.799Z,-0.14
2022-12-15T06:08:43.530Z,-0.08
2022-12-15T06:11:46.841Z,-0.12
2022-12-15T06:14:49.801Z,-0.09
2022-12-15T06:17:57.198Z,-0.17
2022-12-15T06:21:02.956Z,-0.15
2022-12-15T06:24:07.024Z,-0.16
2022-12-15T06:27:10.136Z,-0.25
2022-12-15T06:30:14.081Z,-0.18
2022-12-15T06:33:17.561Z,-0.19
2022-12-15T06:36:21.002Z,-0.20
2022-12-15T06:39:23.952Z,-0.15
2022-12-15T06:42:27.177Z,-0.16
2022-12-15T06:45:30.087Z,-0.21
2022-12-15T06:48:33.427Z,-0.09
2022-12-15T06:51:37.305Z,-0.13
2022-12-15T06:54:40.418Z,-0.10
2022-12-15T06:57:43.278Z,-0.08
2022-12-15T07:00:46.733Z,0.02
2022-12-15T07:03:51.075Z,0.05
2022-12-15T07:06:54.532Z,0.16
2022-12-15T07:09:57.941Z,0.26
2022-12-15T07:13:01.124Z,0.18
2022-12-15T07:16:06.437Z,0.33
2022-12-15T07:19:13.302Z,0.18
2022-12-15T07:22:16.199Z,0.21
2022-12-15T07:25:19.971Z,0.37
2022-12-15T07:28:25.892Z,0.44
2022-12-15T07:31:48.153Z,0.47
2022-12-15T07:34:52.098Z,0.58
2022-12-15T07:37:55.407Z,0.42
2022-12-15T07:41:04.083Z,0.26
2022-12-15T07:44:07.990Z,0.53
2022-12-15T07:47:12.046Z,0.35
2022-12-15T07:50:16.167Z,0.30
2022-12-15T07:53:22.108Z,0.36
2022-12-15T07:56:26.592Z,0.51
2022-12-15T07:59:29.521Z,0.93
2022-12-15T08:02:34.325Z,0.89
2022-12-15T08:05:38.939Z,0.99
2022-12-15T08:08:42.089Z,1.13
2022-12-15T08:11:45.444Z,0.94
2022-12-15T08:14:50.283Z,1.24
2022-12-15T08:17:53.481Z,1.33
2022-12-15T08:20:56.723Z,1.32
2022-12-15T08:24:01.086Z,1.27
2022-12-15T08:27:04.358Z,1.28
2022-12-15T08:30:08.105Z,1.39
2022-12-15T08:33:11.455Z,1.36
2022-12-15T08:36:16.271Z,1.37
2022-12-15T08:39:19.161Z,1.40
2022-12-15T08:42:22.305Z,1.49
2022-12-15T08:45:26.213Z,1.50
2022-12-15T08:48:31.161Z,1.54
2022-12-15T08:51:34.140Z,1.52
2022-12-15T08:54:38.639Z,1.62
2022-12-15T08:57:41.660Z,1.74
2022-12-15T09:00:44.884Z,1.69
2022-12-15T09:03:47.887Z,1.69
2022-12-15T09:06:51.300Z,1.81
2022-12-15T09:09:54.462Z,1.98
2022-12-15T09:12:57.818Z,1.96
2022-12-15T09:16:10.298Z,2.17
2022-12-15T09:19:14.302Z,1.64
2022-12-15T09:22:17.701Z,1.90
2022-12-15T09:25:21.048Z,1.65
2022-12-15T09:28:23.988Z,1.55
2022-12-15T09:31:33.394Z,1.58
2022-12-15T09:34:36.793Z,1.25
2022-12-15T09:37:40.086Z,1.46
2022-12-15T09:40:43.018Z,1.47
2022-12-15T09:44:00.595Z,1.43
2022-12-15T09:47:18.609Z,1.50
2022-12-15T09:50:26.779Z,1.49
2022-12-15T09:53:54.153Z,1.69
2022-12-15T09:56:57.305Z,1.77
2022-12-15T10:00:00.127Z,2.13
2022-12-15T10:03:22.691Z,2.21
2022-12-15T10:06:33.505Z,2.23
2022-12-15T10:09:38.533Z,2.31
2022-12-15T10:12:53.144Z,2.01
2022-12-15T10:16:04.735Z,1.69
2022-12-15T10:19:13.556Z,1.87
2022-12-15T10:22:24.786Z,1.98
2022-12-15T10:25:31.039Z,2.05
2022-12-15T10:28:51.336Z,2.21
2022-12-15T10:31:58.292Z,2.63
2022-12-15T10:35:01.476Z,2.94
2022-12-15T10:38:09.498Z,2.41
2022-12-15T10:41:19.808Z,3.07
2022-12-15T10:44:32.108Z,3.00
2022-12-15T10:47:35.266Z,2.65
2022-12-15T10:50:39.365Z,2.72
2022-12-15T10:53:50.444Z,2.46
2022-12-15T10:56:59.181Z,2.79
2022-12-15T11:00:15.622Z,2.86
2022-12-15T11:03:26.435Z,2.68
2022-12-15T11:06:32.610Z,2.20
2022-12-15T11:09:38.440Z,2.00
2022-12-15T11:12:58.315Z,2.21
2022-12-15T11:16:14.597Z,2.12
2022-12-15T11:19:30.871Z,2.12
2022-12-15T11:22:44.699Z,1.96
2022-12-15T11:26:11.856Z,1.87
2022-12-15T11:29:42.110Z,1.66
2022-12-15T11:32:48.906Z,1.43
2022-12-15T11:36:10.073Z,1.55
2022-12-15T11:39:34.626Z,1.45
2022-12-15T11:42:53.003Z,1.52
2022-12-15T11:46:15.021Z,1.68
2022-12-15T11:49:26.997Z,1.67
2022-12-15T11:53:24.535Z,1.70
2022-12-15T11:56:41.530Z,1.45
2022-12-15T11:59:52.028Z,1.58
2022-12-15T12:03:09.349Z,1.64
2022-12-15T12:06:17.413Z,1.82
2022-12-15T12:09:33.336Z,2.02
2022-12-15T12:12:36.432Z,1.92
2022-12-15T12:15:46.050Z,1.90
2022-12-15T12:19:04.701Z,1.82
2022-12-15T12:22:27.887Z,1.90
2022-12-15T12:25:37.933Z,1.92
2022-12-15T12:28:48.663Z,1.76
2022-12-15T12:32:18.619Z,1.59
2022-12-15T12:35:47.568Z,1.53
2022-12-15T12:38:56.263Z,1.65
2022-12-15T12:42:37.243Z,1.87
2022-12-15T12:45:47.539Z,1.79
2022-12-15T12:49:03.830Z,1.87
2022-12-15T12:52:25.711Z,1.86
2022-12-15T12:55:44.195Z,2.07
2022-12-15T12:58:48.681Z,2.26
2022-12-15T13:01:51.807Z,2.35
2022-12-15T13:04:58.827Z,2.28
2022-12-15T13:08:08.151Z,2.30
2022-12-15T13:11:48.906Z,2.32
2022-12-15T13:15:19.814Z,2.33
2022-12-15T13:18:25.076Z,2.38
2022-12-15T13:21:43.402Z,2.40
2022-12-15T13:24:50.505Z,2.47
2022-12-15T13:27:57.927Z,2.55
2022-12-15T13:31:22.625Z,2.55
2022-12-15T13:34:27.195Z,2.56
2022-12-15T13:37:53.545Z,2.55
2022-12-15T13:40:56.427Z,2.48
2022-12-15T13:44:00.759Z,2.42
2022-12-15T13:47:10.539Z,2.30
2022-12-15T13:50:18.596Z,2.34
2022-12-15T13:53:23.773Z,2.30
2022-12-15T13:56:53.284Z,2.29
2022-12-15T14:00:05.253Z,2.23
2022-12-15T14:03:14.903Z,2.29
2022-12-15T14:06:18.059Z,2.23
2022-12-15T14:09:24.793Z,2.21
2022-12-15T14:12:28.121Z,2.20
2022-12-15T14:15:32.530Z,2.12
2022-12-15T14:18:39.135Z,2.13
2022-12-15T14:21:58.885Z,2.10
2022-12-15T14:25:14.610Z,2.07
2022-12-15T14:28:32.558Z,2.07
2022-12-15T14:31:37.592Z,1.97
2022-12-15T14:34:42.009Z,1.90
2022-12-15T14:37:45.882Z,1.88
2022-12-15T14:40:49.967Z,1.88
2022-12-15T14:47:34.356Z,1.68
2022-12-15T14:50:37.717Z,1.67
2022-12-15T14:53:42.340Z,1.70
2022-12-15T14:56:45.503Z,1.69
2022-12-15T14:59:48.939Z,1.65
2022-12-15T15:03:16.173Z,1.71
2022-12-15T15:03:18.471Z,1.58
2022-12-15T15:06:25.156Z,1.68
2022-12-15T15:09:41.900Z,1.60
2022-12-15T15:12:45.757Z,1.61
2022-12-15T15:15:57.785Z,1.56
2022-12-15T15:19:02.606Z,1.39
2022-12-15T15:22:05.872Z,1.43
2022-12-15T15:25:31.628Z,1.43
2022-12-15T15:28:44.841Z,1.38
2022-12-15T15:31:47.848Z,1.49
2022-12-15T15:34:52.295Z,1.41
2022-12-15T15:37:59.852Z,1.49
2022-12-15T15:41:17.611Z,1.45
2022-12-15T15:44:20.433Z,1.41
2022-12-15T15:47:27.365Z,1.46
2022-12-15T15:50:30.455Z,1.38
2022-12-15T15:53:34.812Z,1.27
2022-12-15T15:56:37.699Z,1.40
2022-12-15T15:59:42.530Z,1.32
2022-12-15T16:02:45.542Z,1.35
2022-12-15T16:05:48.862Z,1.31
2022-12-15T16:08:53.980Z,1.31
2022-12-15T16:11:58.494Z,1.29
2022-12-15T16:15:01.261Z,1.22
2022-12-15T16:18:05.834Z,1.29
2022-12-15T16:21:10.863Z,1.12
2022-12-15T16:24:16.978Z,1.13
2022-12-15T16:27:19.926Z,1.15
2022-12-15T16:30:25.860Z,1.18
2022-12-15T16:33:28.837Z,1.18
2022-12-15T16:36:32.876Z,1.34
2022-12-15T16:39:35.905Z,1.37
2022-12-15T16:42:39.221Z,1.29
2022-12-15T16:45:45.288Z,1.28
2022-12-15T16:48:48.771Z,1.27
2022-12-15T16:51:53.795Z,1.32
2022-12-15T16:54:57.414Z,1.33
2022-12-15T16:58:03.310Z,1.28
2022-12-15T17:01:06.598Z,1.33
2022-12-15T17:04:09.655Z,1.32
2022-12-15T17:07:19.712Z,1.31
2022-12-15T17:10:26.610Z,1.32
2022-12-15T17:13:45.416Z,1.30
2022-12-15T17:16:48.907Z,1.31
2022-12-15T17:20:27.281Z,1.37
2022-12-15T17:23:21.309Z,1.24
2022-12-15T17:26:30.165Z,1.28
2022-12-15T17:29:33.951Z,1.31
2022-12-15T17:32:37.451Z,1.37
2022-12-15T17:35:40.579Z,1.33
2022-12-15T17:38:43.890Z,1.34
2022-12-15T17:42:04.804Z,1.34
2022-12-15T17:45:21.067Z,1.36
2022-12-15T17:48:25.027Z,1.38
2022-12-15T17:51:29.600Z,1.38
2022-12-15T17:54:34.967Z,1.40
2022-12-15T17:57:38.614Z,1.43
2022-12-15T18:00:48.900Z,1.46
2022-12-15T18:03:55.946Z,1.49
2022-12-15T18:07:02.113Z,1.40
2022-12-15T18:10:26.322Z,1.22
2022-12-15T18:13:35.579Z,1.32
2022-12-15T18:16:39.383Z,1.24
2022-12-15T18:19:42.461Z,1.28
2022-12-15T18:22:46.885Z,1.17
2022-12-15T18:25:50.780Z,1.16
2022-12-15T18:28:55.443Z,1.17
2022-12-15T18:31:58.936Z,1.10
2022-12-15T18:35:03.125Z,1.17
2022-12-15T18:38:24.954Z,1.20
2022-12-15T18:41:34.886Z,1.19
2022-12-15T18:44:47.627Z,1.21
2022-12-15T18:47:53.213Z,1.20
2022-12-15T18:51:04.498Z,1.29
2022-12-15T18:54:17.155Z,1.35
2022-12-15T18:57:34.154Z,1.31
2022-12-15T19:00:40.036Z,1.19
2022-12-15T19:03:44.323Z,1.23
2022-12-15T19:06:48.085Z,1.21
2022-12-15T19:09:52.432Z,1.26
2022-12-15T19:12:58.669Z,1.22
2022-12-15T19:16:03.742Z,1.32
2022-12-15T19:19:29.074Z,1.37
2022-12-15T19:22:32.929Z,1.37
2022-12-15T19:25:37.191Z,1.38
2022-12-15T19:28:40.797Z,1.24
2022-12-15T19:31:45.230Z,1.25
2022-12-15T19:34:48.918Z,1.04
2022-12-15T19:37:55.365Z,1.01
2022-12-15T19:40:59.968Z,1.07
2022-12-15T19:44:04.242Z,1.20
2022-12-15T19:47:14.819Z,1.25
2022-12-15T19:50:31.734Z,1.33
2022-12-15T19:53:36.727Z,1.35
2022-12-15T19:56:42.642Z,1.43
2022-12-15T19:59:47.054Z,1.44
2022-12-15T20:02:52.241Z,1.35
2022-12-15T20:05:57.026Z,1.37
2022-12-15T20:09:00.780Z,1.41
2022-12-15T20:12:06.014Z,1.35
2022-12-15T20:15:19.415Z,1.40
2022-12-15T20:18:24.299Z,1.23
2022-12-15T20:21:32.759Z,1.34
2022-12-15T20:24:36.855Z,1.30
2022-12-15T20:27:41.136Z,1.34
2022-12-15T20:30:47.968Z,1.27
2022-12-15T20:33:57.292Z,1.45
2022-12-15T20:37:01.272Z,1.34
2022-12-15T20:40:15.869Z,1.41
2022-12-15T20:43:20.963Z,1.50
2022-12-15T20:46:30.607Z,1.44
2022-12-15T20:49:34.500Z,1.52
2022-12-15T20:52:37.754Z,1.42
2022-12-15T20:55:41.493Z,1.35
2022-12-15T20:58:46.282Z,1.29
2022-12-15T21:01:51.064Z,1.38
2022-12-15T21:04:55.768Z,1.36
2022-12-15T21:08:00.672Z,1.44
2022-12-15T21:11:27.595Z,1.41
2022-12-15T21:14:31.150Z,1.38
2022-12-15T21:17:37.436Z,1.30
2022-12-15T21:20:51.730Z,1.22
2022-12-15T21:23:56.158Z,1.21
2022-12-15T21:27:02.394Z,1.08
2022-12-15T21:30:14.909Z,1.14
2022-12-15T21:33:18.308Z,1.17
2022-12-15T21:36:21.839Z,1.11
2022-12-15T21:39:31.173Z,1.09
2022-12-15T21:42:35.761Z,1.09
2022-12-15T21:45:39.073Z,1.11
2022-12-15T21:49:01.036Z,1.14
2022-12-15T21:52:04.529Z,1.15
2022-12-15T21:55:18.116Z,1.13
2022-12-15T21:58:24.516Z,1.18
2022-12-15T22:01:31.014Z,1.17
2022-12-15T22:04:35.388Z,1.11
2022-12-15T22:07:39.798Z,1.19
2022-12-15T22:10:43.209Z,1.18
2022-12-15T22:13:46.182Z,1.12
2022-12-15T22:16:49.412Z,1.09
2022-12-15T22:19:53.171Z,1.15
2022-12-15T22:22:56.668Z,1.15
2022-12-15T22:25:59.810Z,1.10
2022-12-15T22:29:09.255Z,1.24
2022-12-15T22:32:14.377Z,1.28
2022-12-15T22:35:20.440Z,1.29
2022-12-15T22:38:23.787Z,1.27
2022-12-15T22:41:27.012Z,1.41
2022-12-15T22:44:36.077Z,1.34
2022-12-15T22:47:39.332Z,1.44
2022-12-15T22:50:42.301Z,1.46
2022-12-15T22:53:45.616Z,1.51
2022-12-15T22:57:06.073Z,1.49
2022-12-15T23:00:11.257Z,1.51
2022-12-15T23:03:14.131Z,1.49
2022-12-15T23:06:17.422Z,1.42
2022-12-15T23:09:20.357Z,1.49
2022-12-15T23:12:23.567Z,1.49
2022-12-15T23:15:46.602Z,1.48
2022-12-15T23:18:52.990Z,1.47
2022-12-15T23:21:57.617Z,1.48
2022-12-15T23:25:02.201Z,1.54
2022-12-15T23:28:05.560Z,1.57
2022-12-15T23:31:09.093Z,1.65
2022-12-15T23:34:12.629Z,1.64
2022-12-15T23:37:16.440Z,1.68
2022-12-15T23:40:22.275Z,1.68
2022-12-15T23:43:27.471Z,1.74
2022-12-15T23:46:30.341Z,1.85
2022-12-15T23:49:33.556Z,1.86
2022-12-15T23:52:37.164Z,1.77
2022-12-15T23:55:40.487Z,1.81
2022-12-15T23:58:45.118Z,1.77
